sensor_id;sensor_type;location;lat;lon;timestamp;temperature;humidity
37426;DHT22;23285;50.180;7.036;2023-04-15T00:01:57;8.30;99.90
37426;DHT22;23285;50.180;7.036;2023-04-15T00:04:44;8.00;99.40
37426;DHT22;23285;50.180;7.036;2023-04-15T00:07:30;7.90;99.90
37426;DHT22;23285;50.180;7.036;2023-04-15T00:10:18;7.40;99.90
37426;DHT22;23285;50.180;7.036;2023-04-15T00:13:04;8.10;99.90
37426;DHT22;23285;50.180;7.036;2023-04-15T00:15:50;7.90;99.80
37426;DHT22;23285;50.180;7.036;2023-04-15T00:18:37;8.40;99.60
37426;DHT22;23285;50.180;7.036;2023-04-15T00:21:23;8.10;99.00
37426;DHT22;23285;50.180;7.036;2023-04-15T00:26:59;7.60;99.90
37426;DHT22;23285;50.180;7.036;2023-04-15T00:29:45;8.00;99.90
37426;DHT22;23285;50.180;7.036;2023-04-15T00:32:32;7.90;99.60
37426;DHT22;23285;50.180;7.036;2023-04-15T00:38:05;8.10;99.90
37426;DHT22;23285;50.180;7.036;2023-04-15T00:40:53;8.10;99.50
37426;DHT22;23285;50.180;7.036;2023-04-15T00:43:40;8.00;99.80
37426;DHT22;23285;50.180;7.036;2023-04-15T00:46:28;8.10;99.90
37426;DHT22;23285;50.180;7.036;2023-04-15T00:52:03;8.40;99.90
37426;DHT22;23285;50.180;7.036;2023-04-15T01:00:25;8.10;99.90
37426;DHT22;23285;50.180;7.036;2023-04-15T01:03:12;7.20;99.90
37426;DHT22;23285;50.180;7.036;2023-04-15T01:05:59;6.70;99.90
37426;DHT22;23285;50.180;7.036;2023-04-15T01:08:46;6.20;99.90
37426;DHT22;23285;50.180;7.036;2023-04-15T01:11:33;6.30;99.90
37426;DHT22;23285;50.180;7.036;2023-04-15T01:17:08;7.50;99.90
37426;DHT22;23285;50.180;7.036;2023-04-15T01:19:55;7.30;99.90
37426;DHT22;23285;50.180;7.036;2023-04-15T01:22:42;6.90;99.90
37426;DHT22;23285;50.180;7.036;2023-04-15T01:25:32;7.00;99.90
37426;DHT22;23285;50.180;7.036;2023-04-15T01:28:18;7.60;99.90
37426;DHT22;23285;50.180;7.036;2023-04-15T01:33:55;8.10;99.90
37426;DHT22;23285;50.180;7.036;2023-04-15T01:37:01;8.20;99.80
37426;DHT22;23285;50.180;7.036;2023-04-15T01:39:47;7.80;99.90
37426;DHT22;23285;50.180;7.036;2023-04-15T01:48:12;7.40;99.90
37426;DHT22;23285;50.180;7.036;2023-04-15T01:51:00;7.00;99.90
37426;DHT22;23285;50.180;7.036;2023-04-15T01:56:36;6.20;99.90
37426;DHT22;23285;50.180;7.036;2023-04-15T01:59:25;6.40;99.90
37426;DHT22;23285;50.180;7.036;2023-04-15T02:02:14;6.90;99.90
37426;DHT22;23285;50.180;7.036;2023-04-15T02:05:02;6.60;99.90
37426;DHT22;23285;50.180;7.036;2023-04-15T02:07:51;6.10;99.90
37426;DHT22;23285;50.180;7.036;2023-04-15T02:10:39;5.80;99.90
37426;DHT22;23285;50.180;7.036;2023-04-15T02:13:26;6.70;99.90
37426;DHT22;23285;50.180;7.036;2023-04-15T02:16:19;7.00;99.90
37426;DHT22;23285;50.180;7.036;2023-04-15T02:19:07;6.50;99.90
37426;DHT22;23285;50.180;7.036;2023-04-15T02:24:45;5.80;99.90
37426;DHT22;23285;50.180;7.036;2023-04-15T02:27:33;5.70;99.90
37426;DHT22;23285;50.180;7.036;2023-04-15T02:30:22;5.80;99.90
37426;DHT22;23285;50.180;7.036;2023-04-15T02:33:12;5.60;99.90
37426;DHT22;23285;50.180;7.036;2023-04-15T02:38:48;6.20;99.90
37426;DHT22;23285;50.180;7.036;2023-04-15T02:41:36;6.80;99.90
37426;DHT22;23285;50.180;7.036;2023-04-15T02:44:24;6.60;99.90
37426;DHT22;23285;50.180;7.036;2023-04-15T02:47:16;6.40;99.90
37426;DHT22;23285;50.180;7.036;2023-04-15T02:50:08;6.40;99.90
37426;DHT22;23285;50.180;7.036;2023-04-15T02:55:46;6.50;99.90
37426;DHT22;23285;50.180;7.036;2023-04-15T02:58:34;6.40;99.90
37426;DHT22;23285;50.180;7.036;2023-04-15T03:01:22;6.80;99.90
37426;DHT22;23285;50.180;7.036;2023-04-15T03:04:10;6.60;99.90
37426;DHT22;23285;50.180;7.036;2023-04-15T03:07:00;5.80;99.90
37426;DHT22;23285;50.180;7.036;2023-04-15T03:09:48;5.60;99.90
37426;DHT22;23285;50.180;7.036;2023-04-15T03:12:35;5.60;99.90
37426;DHT22;23285;50.180;7.036;2023-04-15T03:15:23;5.40;99.90
37426;DHT22;23285;50.180;7.036;2023-04-15T03:21:01;5.90;99.90
37426;DHT22;23285;50.180;7.036;2023-04-15T03:23:52;5.60;99.90
37426;DHT22;23285;50.180;7.036;2023-04-15T03:26:40;6.20;99.90
37426;DHT22;23285;50.180;7.036;2023-04-15T03:32:22;6.90;99.90
37426;DHT22;23285;50.180;7.036;2023-04-15T03:35:10;6.90;99.90
37426;DHT22;23285;50.180;7.036;2023-04-15T03:37:57;7.10;99.90
37426;DHT22;23285;50.180;7.036;2023-04-15T03:40:46;7.00;99.90
37426;DHT22;23285;50.180;7.036;2023-04-15T03:43:34;7.10;99.90
37426;DHT22;23285;50.180;7.036;2023-04-15T03:49:10;6.70;99.90
37426;DHT22;23285;50.180;7.036;2023-04-15T03:51:58;6.30;99.90
37426;DHT22;23285;50.180;7.036;2023-04-15T03:57:34;6.20;99.90
37426;DHT22;23285;50.180;7.036;2023-04-15T04:00:24;6.30;99.90
37426;DHT22;23285;50.180;7.036;2023-04-15T04:05:59;6.60;99.90
37426;DHT22;23285;50.180;7.036;2023-04-15T04:08:47;6.90;99.90
37426;DHT22;23285;50.180;7.036;2023-04-15T04:11:35;6.40;99.90
37426;DHT22;23285;50.180;7.036;2023-04-15T04:14:24;6.10;99.90
37426;DHT22;23285;50.180;7.036;2023-04-15T04:17:15;6.70;99.90
37426;DHT22;23285;50.180;7.036;2023-04-15T04:20:03;7.00;99.90
37426;DHT22;23285;50.180;7.036;2023-04-15T04:22:50;6.30;99.90
37426;DHT22;23285;50.180;7.036;2023-04-15T04:25:38;6.30;99.90
37426;DHT22;23285;50.180;7.036;2023-04-15T04:28:26;6.10;99.90
37426;DHT22;23285;50.180;7.036;2023-04-15T04:31:15;6.10;99.90
37426;DHT22;23285;50.180;7.036;2023-04-15T04:34:03;6.40;99.90
37426;DHT22;23285;50.180;7.036;2023-04-15T04:36:51;6.40;99.90
37426;DHT22;23285;50.180;7.036;2023-04-15T04:39:38;6.20;99.90
37426;DHT22;23285;50.180;7.036;2023-04-15T04:42:26;6.20;99.90
37426;DHT22;23285;50.180;7.036;2023-04-15T04:45:14;6.10;99.90
37426;DHT22;23285;50.180;7.036;2023-04-15T04:48:04;6.20;99.90
37426;DHT22;23285;50.180;7.036;2023-04-15T04:50:52;6.70;99.90
37426;DHT22;23285;50.180;7.036;2023-04-15T04:53:40;6.70;99.90
37426;DHT22;23285;50.180;7.036;2023-04-15T04:56:28;6.60;99.90
37426;DHT22;23285;50.180;7.036;2023-04-15T04:59:16;6.90;99.90
37426;DHT22;23285;50.180;7.036;2023-04-15T05:02:04;7.10;99.90
37426;DHT22;23285;50.180;7.036;2023-04-15T05:04:53;6.70;99.90
37426;DHT22;23285;50.180;7.036;2023-04-15T05:07:41;6.40;99.90
37426;DHT22;23285;50.180;7.036;2023-04-15T05:10:28;6.50;99.90
37426;DHT22;23285;50.180;7.036;2023-04-15T05:13:16;6.70;99.90
37426;DHT22;23285;50.180;7.036;2023-04-15T05:16:04;6.90;99.90
37426;DHT22;23285;50.180;7.036;2023-04-15T05:18:53;7.00;99.90
37426;DHT22;23285;50.180;7.036;2023-04-15T05:30:06;6.10;99.90
37426;DHT22;23285;50.180;7.036;2023-04-15T05:32:54;6.30;99.90
37426;DHT22;23285;50.180;7.036;2023-04-15T05:35:42;6.50;99.90
37426;DHT22;23285;50.180;7.036;2023-04-15T05:38:31;6.50;99.90
37426;DHT22;23285;50.180;7.036;2023-04-15T05:41:19;6.60;99.90
37426;DHT22;23285;50.180;7.036;2023-04-15T05:44:06;7.10;99.90
37426;DHT22;23285;50.180;7.036;2023-04-15T05:49:42;6.90;99.90
37426;DHT22;23285;50.180;7.036;2023-04-15T05:52:30;6.40;99.90
37426;DHT22;23285;50.180;7.036;2023-04-15T05:55:19;6.40;99.90
37426;DHT22;23285;50.180;7.036;2023-04-15T06:00:55;6.20;99.90
37426;DHT22;23285;50.180;7.036;2023-04-15T06:03:43;6.60;99.90
37426;DHT22;23285;50.180;7.036;2023-04-15T06:06:31;6.30;99.90
37426;DHT22;23285;50.180;7.036;2023-04-15T06:09:19;6.40;99.90
37426;DHT22;23285;50.180;7.036;2023-04-15T06:12:09;6.50;99.90
37426;DHT22;23285;50.180;7.036;2023-04-15T06:14:59;6.80;99.90
37426;DHT22;23285;50.180;7.036;2023-04-15T06:23:23;7.10;99.90
37426;DHT22;23285;50.180;7.036;2023-04-15T06:26:11;7.20;99.90
37426;DHT22;23285;50.180;7.036;2023-04-15T06:29:00;7.60;99.90
37426;DHT22;23285;50.180;7.036;2023-04-15T06:31:48;7.90;99.90
37426;DHT22;23285;50.180;7.036;2023-04-15T06:34:35;8.10;99.90
37426;DHT22;23285;50.180;7.036;2023-04-15T06:37:23;8.00;99.90
37426;DHT22;23285;50.180;7.036;2023-04-15T06:40:11;8.10;99.90
37426;DHT22;23285;50.180;7.036;2023-04-15T06:42:59;8.20;99.90
37426;DHT22;23285;50.180;7.036;2023-04-15T06:45:49;8.30;99.90
37426;DHT22;23285;50.180;7.036;2023-04-15T06:51:24;8.40;99.90
37426;DHT22;23285;50.180;7.036;2023-04-15T06:54:12;8.50;99.90
37426;DHT22;23285;50.180;7.036;2023-04-15T06:56:59;8.50;99.90
37426;DHT22;23285;50.180;7.036;2023-04-15T06:59:47;8.70;99.90
37426;DHT22;23285;50.180;7.036;2023-04-15T07:02:36;8.70;99.90
37426;DHT22;23285;50.180;7.036;2023-04-15T07:05:24;8.80;99.90
37426;DHT22;23285;50.180;7.036;2023-04-15T07:11:01;9.20;99.90
37426;DHT22;23285;50.180;7.036;2023-04-15T07:13:48;9.20;99.90
37426;DHT22;23285;50.180;7.036;2023-04-15T07:19:26;9.90;99.90
37426;DHT22;23285;50.180;7.036;2023-04-15T07:22:13;10.50;99.90
37426;DHT22;23285;50.180;7.036;2023-04-15T07:25:01;10.40;99.90
37426;DHT22;23285;50.180;7.036;2023-04-15T07:27:49;10.30;99.90
37426;DHT22;23285;50.180;7.036;2023-04-15T07:30:37;10.40;99.90
37426;DHT22;23285;50.180;7.036;2023-04-15T07:36:14;10.80;99.90
37426;DHT22;23285;50.180;7.036;2023-04-15T07:39:02;10.80;99.90
37426;DHT22;23285;50.180;7.036;2023-04-15T07:41:51;11.00;99.90
37426;DHT22;23285;50.180;7.036;2023-04-15T07:47:26;11.50;99.90
37426;DHT22;23285;50.180;7.036;2023-04-15T07:50:13;11.90;99.10
37426;DHT22;23285;50.180;7.036;2023-04-15T07:53:04;12.00;98.70
37426;DHT22;23285;50.180;7.036;2023-04-15T07:55:52;11.90;98.40
37426;DHT22;23285;50.180;7.036;2023-04-15T07:58:40;12.30;99.50
37426;DHT22;23285;50.180;7.036;2023-04-15T08:01:28;12.60;98.70
37426;DHT22;23285;50.180;7.036;2023-04-15T08:04:16;12.50;99.10
37426;DHT22;23285;50.180;7.036;2023-04-15T08:07:03;12.60;98.20
37426;DHT22;23285;50.180;7.036;2023-04-15T08:09:52;12.70;99.30
37426;DHT22;23285;50.180;7.036;2023-04-15T08:12:40;13.00;98.60
37426;DHT22;23285;50.180;7.036;2023-04-15T08:18:18;12.90;96.50
37426;DHT22;23285;50.180;7.036;2023-04-15T08:21:05;12.70;96.00
37426;DHT22;23285;50.180;7.036;2023-04-15T08:23:53;12.60;95.30
37426;DHT22;23285;50.180;7.036;2023-04-15T08:32:19;12.90;96.50
37426;DHT22;23285;50.180;7.036;2023-04-15T08:35:08;13.00;95.80
37426;DHT22;23285;50.180;7.036;2023-04-15T08:37:55;13.20;96.00
37426;DHT22;23285;50.180;7.036;2023-04-15T08:40:44;13.20;96.10
37426;DHT22;23285;50.180;7.036;2023-04-15T08:43:34;13.40;98.30
37426;DHT22;23285;50.180;7.036;2023-04-15T08:52:02;13.30;98.40
37426;DHT22;23285;50.180;7.036;2023-04-15T08:54:49;13.10;97.50
37426;DHT22;23285;50.180;7.036;2023-04-15T08:57:37;13.20;98.20
37426;DHT22;23285;50.180;7.036;2023-04-15T09:00:27;13.20;98.00
37426;DHT22;23285;50.180;7.036;2023-04-15T09:03:15;13.30;98.70
37426;DHT22;23285;50.180;7.036;2023-04-15T09:08:52;13.40;99.20
37426;DHT22;23285;50.180;7.036;2023-04-15T09:11:39;13.20;98.70
37426;DHT22;23285;50.180;7.036;2023-04-15T09:17:19;12.90;99.90
37426;DHT22;23285;50.180;7.036;2023-04-15T09:20:08;12.90;99.40
37426;DHT22;23285;50.180;7.036;2023-04-15T09:22:56;12.80;99.90
37426;DHT22;23285;50.180;7.036;2023-04-15T09:25:44;13.00;99.50
37426;DHT22;23285;50.180;7.036;2023-04-15T09:28:32;12.90;99.70
37426;DHT22;23285;50.180;7.036;2023-04-15T09:31:28;13.10;99.60
37426;DHT22;23285;50.180;7.036;2023-04-15T09:45:52;12.90;99.90
37426;DHT22;23285;50.180;7.036;2023-04-15T09:48:40;13.00;99.50
37426;DHT22;23285;50.180;7.036;2023-04-15T09:51:34;13.00;98.70
37426;DHT22;23285;50.180;7.036;2023-04-15T09:54:22;13.20;98.60
37426;DHT22;23285;50.180;7.036;2023-04-15T09:57:10;13.40;99.50
37426;DHT22;23285;50.180;7.036;2023-04-15T09:59:58;13.40;97.40
37426;DHT22;23285;50.180;7.036;2023-04-15T10:02:46;13.30;96.80
37426;DHT22;23285;50.180;7.036;2023-04-15T10:05:36;13.20;98.10
37426;DHT22;23285;50.180;7.036;2023-04-15T10:08:27;13.20;98.10
37426;DHT22;23285;50.180;7.036;2023-04-15T10:11:16;13.20;97.00
37426;DHT22;23285;50.180;7.036;2023-04-15T10:16:55;12.80;96.70
37426;DHT22;23285;50.180;7.036;2023-04-15T10:19:45;13.00;96.80
37426;DHT22;23285;50.180;7.036;2023-04-15T10:22:34;13.30;96.90
37426;DHT22;23285;50.180;7.036;2023-04-15T10:25:25;13.00;95.60
37426;DHT22;23285;50.180;7.036;2023-04-15T10:28:14;12.80;96.60
37426;DHT22;23285;50.180;7.036;2023-04-15T10:33:52;13.10;98.00
37426;DHT22;23285;50.180;7.036;2023-04-15T10:36:40;13.20;95.70
37426;DHT22;23285;50.180;7.036;2023-04-15T10:39:38;12.60;93.90
37426;DHT22;23285;50.180;7.036;2023-04-15T10:42:33;12.70;95.20
37426;DHT22;23285;50.180;7.036;2023-04-15T10:51:00;13.30;96.30
37426;DHT22;23285;50.180;7.036;2023-04-15T10:56:36;13.20;96.10
37426;DHT22;23285;50.180;7.036;2023-04-15T11:02:14;13.50;97.60
37426;DHT22;23285;50.180;7.036;2023-04-15T11:05:02;13.90;95.20
37426;DHT22;23285;50.180;7.036;2023-04-15T11:07:53;13.50;96.80
37426;DHT22;23285;50.180;7.036;2023-04-15T11:10:51;13.40;97.00
37426;DHT22;23285;50.180;7.036;2023-04-15T11:13:47;13.40;95.90
37426;DHT22;23285;50.180;7.036;2023-04-15T11:16:42;13.10;96.30
37426;DHT22;23285;50.180;7.036;2023-04-15T11:19:37;13.40;96.20
37426;DHT22;23285;50.180;7.036;2023-04-15T11:22:25;13.50;96.50
37426;DHT22;23285;50.180;7.036;2023-04-15T11:25:21;13.60;96.70
37426;DHT22;23285;50.180;7.036;2023-04-15T11:31:02;13.60;99.40
37426;DHT22;23285;50.180;7.036;2023-04-15T11:33:57;13.50;99.00
37426;DHT22;23285;50.180;7.036;2023-04-15T11:36:45;13.40;97.50
37426;DHT22;23285;50.180;7.036;2023-04-15T11:39:33;13.10;97.50
37426;DHT22;23285;50.180;7.036;2023-04-15T11:42:23;13.20;97.70
37426;DHT22;23285;50.180;7.036;2023-04-15T11:45:13;13.50;96.50
37426;DHT22;23285;50.180;7.036;2023-04-15T11:48:08;13.90;96.00
37426;DHT22;23285;50.180;7.036;2023-04-15T11:53:46;13.90;98.20
37426;DHT22;23285;50.180;7.036;2023-04-15T11:56:33;13.80;97.80
37426;DHT22;23285;50.180;7.036;2023-04-15T11:59:20;13.60;96.90
37426;DHT22;23285;50.180;7.036;2023-04-15T12:02:11;13.70;96.90
37426;DHT22;23285;50.180;7.036;2023-04-15T12:07:59;13.40;98.00
37426;DHT22;23285;50.180;7.036;2023-04-15T12:19:06;14.40;95.00
37426;DHT22;23285;50.180;7.036;2023-04-15T12:24:45;14.70;96.50
37426;DHT22;23285;50.180;7.036;2023-04-15T12:30:20;14.10;96.80
37426;DHT22;23285;50.180;7.036;2023-04-15T12:38:40;13.40;97.60
37426;DHT22;23285;50.180;7.036;2023-04-15T12:44:15;13.20;98.60
37426;DHT22;23285;50.180;7.036;2023-04-15T12:52:33;13.00;99.90
37426;DHT22;23285;50.180;7.036;2023-04-15T12:55:20;13.40;99.00
37426;DHT22;23285;50.180;7.036;2023-04-15T12:58:07;13.50;99.90
37426;DHT22;23285;50.180;7.036;2023-04-15T13:00:55;13.30;98.80
37426;DHT22;23285;50.180;7.036;2023-04-15T13:06:29;13.30;99.90
37426;DHT22;23285;50.180;7.036;2023-04-15T13:14:52;13.70;99.90
37426;DHT22;23285;50.180;7.036;2023-04-15T13:17:38;13.90;99.70
37426;DHT22;23285;50.180;7.036;2023-04-15T13:20:24;13.80;99.90
37426;DHT22;23285;50.180;7.036;2023-04-15T13:23:11;13.60;99.90
37426;DHT22;23285;50.180;7.036;2023-04-15T13:25:58;13.70;99.90
37426;DHT22;23285;50.180;7.036;2023-04-15T13:28:44;13.80;99.90
37426;DHT22;23285;50.180;7.036;2023-04-15T13:34:18;13.80;99.90
37426;DHT22;23285;50.180;7.036;2023-04-15T13:37:08;13.90;99.90
37426;DHT22;23285;50.180;7.036;2023-04-15T13:39:55;14.10;99.70
37426;DHT22;23285;50.180;7.036;2023-04-15T13:42:42;13.70;99.90
37426;DHT22;23285;50.180;7.036;2023-04-15T13:45:28;13.40;99.90
37426;DHT22;23285;50.180;7.036;2023-04-15T13:48:16;13.50;99.90
37426;DHT22;23285;50.180;7.036;2023-04-15T13:51:02;13.20;99.90
37426;DHT22;23285;50.180;7.036;2023-04-15T13:53:48;13.10;99.90
37426;DHT22;23285;50.180;7.036;2023-04-15T13:56:35;12.90;99.90
37426;DHT22;23285;50.180;7.036;2023-04-15T13:59:21;13.10;99.90
37426;DHT22;23285;50.180;7.036;2023-04-15T14:02:07;13.00;99.90
37426;DHT22;23285;50.180;7.036;2023-04-15T14:04:55;13.00;99.90
37426;DHT22;23285;50.180;7.036;2023-04-15T14:07:41;12.60;99.90
37426;DHT22;23285;50.180;7.036;2023-04-15T14:24:24;11.70;99.90
37426;DHT22;23285;50.180;7.036;2023-04-15T14:27:10;11.70;99.90
37426;DHT22;23285;50.180;7.036;2023-04-15T14:29:57;11.80;99.90
37426;DHT22;23285;50.180;7.036;2023-04-15T14:32:44;11.80;99.90
37426;DHT22;23285;50.180;7.036;2023-04-15T14:35:30;11.80;99.90
37426;DHT22;23285;50.180;7.036;2023-04-15T14:38:18;11.50;99.90
37426;DHT22;23285;50.180;7.036;2023-04-15T14:41:07;11.30;99.90
37426;DHT22;23285;50.180;7.036;2023-04-15T14:52:14;10.90;99.90
37426;DHT22;23285;50.180;7.036;2023-04-15T14:57:48;10.70;99.90
37426;DHT22;23285;50.180;7.036;2023-04-15T15:00:34;10.70;99.90
37426;DHT22;23285;50.180;7.036;2023-04-15T15:03:23;10.50;99.90
37426;DHT22;23285;50.180;7.036;2023-04-15T15:11:43;10.60;99.90
37426;DHT22;23285;50.180;7.036;2023-04-15T15:14:30;10.90;99.90
37426;DHT22;23285;50.180;7.036;2023-04-15T15:22:49;11.00;99.90
37426;DHT22;23285;50.180;7.036;2023-04-15T15:25:36;11.10;99.90
37426;DHT22;23285;50.180;7.036;2023-04-15T15:28:23;11.10;99.90
37426;DHT22;23285;50.180;7.036;2023-04-15T15:33:56;11.20;99.90
37426;DHT22;23285;50.180;7.036;2023-04-15T15:36:42;11.00;99.90
37426;DHT22;23285;50.180;7.036;2023-04-15T15:39:29;10.90;99.90
37426;DHT22;23285;50.180;7.036;2023-04-15T15:42:15;11.00;99.90
37426;DHT22;23285;50.180;7.036;2023-04-15T15:45:04;11.00;99.90
37426;DHT22;23285;50.180;7.036;2023-04-15T15:47:51;10.60;99.90
37426;DHT22;23285;50.180;7.036;2023-04-15T15:50:38;10.40;99.90
37426;DHT22;23285;50.180;7.036;2023-04-15T15:53:24;10.40;99.90
37426;DHT22;23285;50.180;7.036;2023-04-15T15:56:11;10.20;99.90
37426;DHT22;23285;50.180;7.036;2023-04-15T16:01:45;10.00;99.90
37426;DHT22;23285;50.180;7.036;2023-04-15T16:07:18;10.60;99.90
37426;DHT22;23285;50.180;7.036;2023-04-15T16:10:05;10.30;99.90
37426;DHT22;23285;50.180;7.036;2023-04-15T16:15:39;10.30;99.90
37426;DHT22;23285;50.180;7.036;2023-04-15T16:18:27;10.10;99.90
37426;DHT22;23285;50.180;7.036;2023-04-15T16:21:13;10.00;99.90
37426;DHT22;23285;50.180;7.036;2023-04-15T16:24:00;9.80;99.90
37426;DHT22;23285;50.180;7.036;2023-04-15T16:26:47;9.90;99.90
37426;DHT22;23285;50.180;7.036;2023-04-15T16:32:20;9.90;99.90
37426;DHT22;23285;50.180;7.036;2023-04-15T16:35:09;10.00;99.90
37426;DHT22;23285;50.180;7.036;2023-04-15T16:40:41;10.10;99.90
37426;DHT22;23285;50.180;7.036;2023-04-15T16:46:15;10.30;99.90
37426;DHT22;23285;50.180;7.036;2023-04-15T16:51:48;10.40;99.90
37426;DHT22;23285;50.180;7.036;2023-04-15T16:54:34;10.40;99.90
37426;DHT22;23285;50.180;7.036;2023-04-15T16:57:25;10.40;99.90
37426;DHT22;23285;50.180;7.036;2023-04-15T17:00:12;10.60;99.90
37426;DHT22;23285;50.180;7.036;2023-04-15T17:02:59;10.80;99.90
37426;DHT22;23285;50.180;7.036;2023-04-15T17:08:33;10.80;99.90
37426;DHT22;23285;50.180;7.036;2023-04-15T17:11:19;10.60;99.90
37426;DHT22;23285;50.180;7.036;2023-04-15T17:14:06;10.50;99.90
37426;DHT22;23285;50.180;7.036;2023-04-15T17:16:52;10.40;99.90
37426;DHT22;23285;50.180;7.036;2023-04-15T17:19:38;10.40;99.90
37426;DHT22;23285;50.180;7.036;2023-04-15T17:22:27;10.30;99.90
37426;DHT22;23285;50.180;7.036;2023-04-15T17:25:15;10.20;99.90
37426;DHT22;23285;50.180;7.036;2023-04-15T17:28:05;9.90;99.90
37426;DHT22;23285;50.180;7.036;2023-04-15T17:30:52;9.80;99.90
37426;DHT22;23285;50.180;7.036;2023-04-15T17:33:58;10.10;99.90
37426;DHT22;23285;50.180;7.036;2023-04-15T17:40:11;10.10;99.90
37426;DHT22;23285;50.180;7.036;2023-04-15T17:46:26;10.10;99.90
37426;DHT22;23285;50.180;7.036;2023-04-15T17:49:32;10.20;99.90
37426;DHT22;23285;50.180;7.036;2023-04-15T17:52:41;9.90;99.90
37426;DHT22;23285;50.180;7.036;2023-04-15T18:02:06;10.00;99.90
37426;DHT22;23285;50.180;7.036;2023-04-15T18:05:12;9.60;99.90
37426;DHT22;23285;50.180;7.036;2023-04-15T18:08:18;9.60;99.90
37426;DHT22;23285;50.180;7.036;2023-04-15T18:11:25;9.40;99.90
37426;DHT22;23285;50.180;7.036;2023-04-15T18:14:33;9.20;99.90
37426;DHT22;23285;50.180;7.036;2023-04-15T18:17:39;9.00;99.90
37426;DHT22;23285;50.180;7.036;2023-04-15T18:23:19;9.00;99.90
37426;DHT22;23285;50.180;7.036;2023-04-15T18:28:53;9.10;99.90
37426;DHT22;23285;50.180;7.036;2023-04-15T18:31:40;9.30;99.90
37426;DHT22;23285;50.180;7.036;2023-04-15T18:34:27;9.40;99.90
37426;DHT22;23285;50.180;7.036;2023-04-15T18:37:13;9.40;99.90
37426;DHT22;23285;50.180;7.036;2023-04-15T18:40:00;9.30;99.90
37426;DHT22;23285;50.180;7.036;2023-04-15T18:48:20;9.10;99.90
37426;DHT22;23285;50.180;7.036;2023-04-15T18:56:39;9.20;99.90
37426;DHT22;23285;50.180;7.036;2023-04-15T18:59:26;9.00;99.90
37426;DHT22;23285;50.180;7.036;2023-04-15T19:07:49;8.90;99.90
37426;DHT22;23285;50.180;7.036;2023-04-15T19:10:35;8.90;99.90
37426;DHT22;23285;50.180;7.036;2023-04-15T19:13:22;9.20;99.90
37426;DHT22;23285;50.180;7.036;2023-04-15T19:16:10;9.40;99.90
37426;DHT22;23285;50.180;7.036;2023-04-15T19:18:56;9.40;99.90
37426;DHT22;23285;50.180;7.036;2023-04-15T19:21:43;9.20;99.90
37426;DHT22;23285;50.180;7.036;2023-04-15T19:24:31;8.90;99.90
37426;DHT22;23285;50.180;7.036;2023-04-15T19:30:07;8.80;99.90
37426;DHT22;23285;50.180;7.036;2023-04-15T19:32:53;8.80;99.90
37426;DHT22;23285;50.180;7.036;2023-04-15T19:52:23;8.90;99.90
37426;DHT22;23285;50.180;7.036;2023-04-15T20:06:17;8.60;99.90
37426;DHT22;23285;50.180;7.036;2023-04-15T20:09:04;8.50;99.90
37426;DHT22;23285;50.180;7.036;2023-04-15T20:14:38;8.20;99.90
37426;DHT22;23285;50.180;7.036;2023-04-15T20:22:59;8.30;99.90
37426;DHT22;23285;50.180;7.036;2023-04-15T20:25:45;7.90;99.90
37426;DHT22;23285;50.180;7.036;2023-04-15T20:31:19;8.00;99.90
37426;DHT22;23285;50.180;7.036;2023-04-15T20:34:06;8.10;99.90
37426;DHT22;23285;50.180;7.036;2023-04-15T20:45:14;8.40;99.90
37426;DHT22;23285;50.180;7.036;2023-04-15T20:50:46;8.40;99.90
37426;DHT22;23285;50.180;7.036;2023-04-15T20:53:33;8.20;99.90
37426;DHT22;23285;50.180;7.036;2023-04-15T20:56:19;8.30;99.90
37426;DHT22;23285;50.180;7.036;2023-04-15T21:10:13;8.30;99.90
37426;DHT22;23285;50.180;7.036;2023-04-15T21:13:00;8.40;99.90
37426;DHT22;23285;50.180;7.036;2023-04-15T21:15:46;8.40;99.90
37426;DHT22;23285;50.180;7.036;2023-04-15T21:21:23;8.40;99.90
37426;DHT22;23285;50.180;7.036;2023-04-15T21:26:57;8.40;99.90
37426;DHT22;23285;50.180;7.036;2023-04-15T21:35:17;8.60;99.90
37426;DHT22;23285;50.180;7.036;2023-04-15T21:51:57;8.10;99.90
37426;DHT22;23285;50.180;7.036;2023-04-15T22:03:05;8.00;99.90
37426;DHT22;23285;50.180;7.036;2023-04-15T22:05:51;8.00;99.90
37426;DHT22;23285;50.180;7.036;2023-04-15T22:14:14;8.00;99.90
37426;DHT22;23285;50.180;7.036;2023-04-15T22:17:00;8.00;99.90
37426;DHT22;23285;50.180;7.036;2023-04-15T22:19:47;8.20;99.90
37426;DHT22;23285;50.180;7.036;2023-04-15T22:30:54;8.60;99.90
37426;DHT22;23285;50.180;7.036;2023-04-15T22:33:41;8.40;99.90
37426;DHT22;23285;50.180;7.036;2023-04-15T22:39:15;8.50;99.90
37426;DHT22;23285;50.180;7.036;2023-04-15T22:42:03;8.30;99.90
37426;DHT22;23285;50.180;7.036;2023-04-15T22:44:50;8.30;99.90
37426;DHT22;23285;50.180;7.036;2023-04-15T22:47:36;8.10;99.90
37426;DHT22;23285;50.180;7.036;2023-04-15T22:53:09;8.20;99.90
37426;DHT22;23285;50.180;7.036;2023-04-15T22:58:42;8.20;99.90
37426;DHT22;23285;50.180;7.036;2023-04-15T23:01:29;8.30;99.90
37426;DHT22;23285;50.180;7.036;2023-04-15T23:09:49;8.60;99.90
37426;DHT22;23285;50.180;7.036;2023-04-15T23:15:23;8.60;99.90
37426;DHT22;23285;50.180;7.036;2023-04-15T23:18:10;8.40;99.90
37426;DHT22;23285;50.180;7.036;2023-04-15T23:23:44;8.40;99.90
37426;DHT22;23285;50.180;7.036;2023-04-15T23:26:30;8.30;99.90
37426;DHT22;23285;50.180;7.036;2023-04-15T23:29:16;8.30;99.90
37426;DHT22;23285;50.180;7.036;2023-04-15T23:34:50;8.20;99.90
37426;DHT22;23285;50.180;7.036;2023-04-15T23:37:36;8.10;99.90
37426;DHT22;23285;50.180;7.036;2023-04-15T23:40:23;8.10;99.90
37426;DHT22;23285;50.180;7.036;2023-04-15T23:43:09;8.10;99.90
37426;DHT22;23285;50.180;7.036;2023-04-15T23:45:55;8.10;99.90
37426;DHT22;23285;50.180;7.036;2023-04-15T23:48:43;8.10;99.90
37426;DHT22;23285;50.180;7.036;2023-04-15T23:51:31;8.00;99.90
37426;DHT22;23285;50.180;7.036;2023-04-15T23:54:17;7.90;99.90
37426;DHT22;23285;50.180;7.036;2023-04-15T23:57:04;7.80;99.90
